Time;durP1;ratioP1;P1;durP2;ratioP2;P2;SDS_P1;SDS_P2;PMS_P1;PMS_P2;Temp;Humidity;BMP_temperature;BMP_pressure;BME280_temperature;BME280_humidity;BME280_pressure;Samples;Min_cycle;Max_cycle;Signal;HPM_P1;HPM_P2
2021/08/09 00:00:42;;;;;;;1999.90;999.90;;;;;;;13.87;100.00;100843.13;5112512;28;20122;-72
2021/08/09 00:03:08;;;;;;;1999.90;999.90;;;;;;;13.86;100.00;100844.13;5113942;28;20040;-72
2021/08/09 00:05:35;;;;;;;1999.90;999.90;;;;;;;13.85;100.00;100849.72;5113458;28;20063;-72
2021/08/09 00:08:02;;;;;;;1999.90;999.90;;;;;;;13.86;100.00;100852.31;5113766;28;20075;-72
2021/08/09 00:10:29;;;;;;;1999.90;999.90;;;;;;;13.85;100.00;100847.00;5113571;28;20108;-72
2021/08/09 00:12:57;;;;;;;1999.90;999.90;;;;;;;13.86;100.00;100857.75;5113863;28;20055;-71
2021/08/09 00:15:25;;;;;;;1999.90;999.90;;;;;;;13.82;100.00;100856.31;5113926;28;20437;-68
2021/08/09 00:17:51;;;;;;;1999.90;999.90;;;;;;;13.77;100.00;100855.03;5113040;28;20059;-67
2021/08/09 00:20:19;;;;;;;1999.90;999.90;;;;;;;13.69;100.00;100858.47;5113162;28;20060;-68
2021/08/09 00:22:46;;;;;;;1999.90;999.90;;;;;;;13.64;100.00;100864.38;5112992;28;20035;-70
2021/08/09 00:25:13;;;;;;;1999.90;999.90;;;;;;;13.58;100.00;100864.91;5113092;28;20035;-70
2021/08/09 00:27:39;;;;;;;1999.90;999.90;;;;;;;13.55;100.00;100863.31;5112903;28;20467;-70
2021/08/09 00:30:09;;;;;;;1999.90;999.90;;;;;;;13.52;100.00;100862.75;5112850;28;20039;-70
2021/08/09 00:32:36;;;;;;;1999.90;999.90;;;;;;;13.46;100.00;100858.72;5111827;28;20067;-69
2021/08/09 00:35:03;;;;;;;1999.90;999.90;;;;;;;13.40;100.00;100859.25;5111734;28;20088;-69
2021/08/09 00:37:30;;;;;;;1999.90;999.90;;;;;;;13.34;100.00;100854.34;5111686;28;20039;-70
2021/08/09 00:39:57;;;;;;;1999.90;999.90;;;;;;;13.28;100.00;100860.34;5111293;28;20089;-69
2021/08/09 00:42:24;;;;;;;1999.90;999.90;;;;;;;13.21;100.00;100862.78;5094512;28;20047;-69
2021/08/09 00:44:51;;;;;;;1999.90;999.90;;;;;;;13.15;100.00;100868.81;5112602;28;20067;-69
2021/08/09 00:47:20;;;;;;;1999.90;999.90;;;;;;;13.15;100.00;100877.81;5111282;28;20047;-69
2021/08/09 00:49:46;;;;;;;1999.90;999.90;;;;;;;13.09;100.00;100878.38;5111615;28;20075;-68
2021/08/09 00:52:13;;;;;;;1999.90;999.90;;;;;;;13.05;100.00;100874.19;5111418;28;20142;-69
2021/08/09 00:54:40;;;;;;;1999.90;999.90;;;;;;;13.03;100.00;100878.94;5111323;28;20116;-68
2021/08/09 00:57:09;;;;;;;1999.90;999.90;;;;;;;13.05;100.00;100876.91;5111217;28;20067;-68
2021/08/09 00:59:38;;;;;;;1999.90;999.90;;;;;;;13.03;100.00;100873.47;5110947;28;20055;-68
2021/08/09 01:02:04;;;;;;;1999.90;999.90;;;;;;;13.03;100.00;100873.47;5112274;28;20051;-68
2021/08/09 01:04:36;;;;;;;1999.90;999.90;;;;;;;13.06;100.00;100874.06;5111178;28;20479;-68
2021/08/09 01:07:04;;;;;;;1999.90;999.90;;;;;;;13.05;100.00;100872.34;5111449;28;20047;-72
2021/08/09 01:09:38;;;;;;;1999.90;999.90;;;;;;;13.06;100.00;100873.19;5111420;28;20146;-72
2021/08/09 01:12:11;;;;;;;1999.90;999.90;;;;;;;13.02;100.00;100869.88;5111463;28;20044;-72
2021/08/09 01:14:47;;;;;;;1999.90;999.90;;;;;;;12.98;100.00;100881.22;5111182;28;20036;-70
2021/08/09 01:17:15;;;;;;;1999.90;999.90;;;;;;;13.02;100.00;100879.94;5110579;28;20048;-68
2021/08/09 01:20:03;;;;;;;1999.90;999.90;;;;;;;13.00;100.00;100890.09;5110623;28;20062;-68
2021/08/09 01:22:43;;;;;;;1999.90;999.90;;;;;;;12.99;100.00;100885.66;5110956;28;20411;-68
2021/08/09 01:25:17;;;;;;;1999.90;999.90;;;;;;;12.99;100.00;100880.22;5110772;28;20040;-68
2021/08/09 01:27:49;;;;;;;1999.90;999.90;;;;;;;12.99;100.00;100889.22;5110697;28;20141;-71
2021/08/09 01:30:16;;;;;;;1999.90;999.90;;;;;;;12.97;100.00;100891.22;5110902;28;20101;-68
2021/08/09 01:32:45;;;;;;;1999.90;999.90;;;;;;;12.99;100.00;100891.09;5110517;28;20050;-69
2021/08/09 01:35:15;;;;;;;1999.90;999.90;;;;;;;12.93;100.00;100886.19;5110304;28;20096;-71
2021/08/09 01:37:46;;;;;;;1999.90;999.90;;;;;;;12.89;100.00;100891.94;5110600;28;20464;-68
2021/08/09 01:40:14;;;;;;;;;;;;;;;12.90;100.00;100890.06;5111291;28;20052;-68
2021/08/09 01:42:44;;;;;;;1999.90;999.90;;;;;;;12.83;100.00;100902.50;5110590;28;20448;-68
2021/08/09 01:45:14;;;;;;;1999.90;999.90;;;;;;;12.84;100.00;100902.38;5110530;28;20043;-68
2021/08/09 01:47:42;;;;;;;1999.90;999.90;;;;;;;12.79;100.00;100901.03;5110263;28;20047;-68
2021/08/09 01:50:12;;;;;;;1999.90;999.90;;;;;;;12.80;100.00;100900.91;5110539;28;20062;-68
2021/08/09 01:52:41;;;;;;;1999.90;999.90;;;;;;;12.79;100.00;100893.72;5110641;28;20047;-68
2021/08/09 01:55:09;;;;;;;1999.90;999.90;;;;;;;12.77;100.00;100905.75;5110042;28;20134;-68
2021/08/09 01:57:37;;;;;;;1999.90;999.90;;;;;;;12.71;100.00;100904.44;5089885;28;20036;-68
2021/08/09 02:00:05;;;;;;;1999.90;999.90;;;;;;;12.64;100.00;100916.84;5089836;28;20048;-71
2021/08/09 02:02:44;;;;;;;1999.90;999.90;;;;;;;12.55;100.00;100927.53;5091474;28;20047;-71
2021/08/09 02:05:15;;;;;;;1999.90;999.90;;;;;;;12.47;100.00;100931.94;5090431;28;20046;-71
2021/08/09 02:07:49;;;;;;;1999.90;999.90;;;;;;;12.38;100.00;100934.44;5089894;28;20101;-67
2021/08/09 02:10:18;;;;;;;1999.90;999.90;;;;;;;12.29;100.00;100928.94;5089998;28;20523;-71
2021/08/09 02:12:48;;;;;;;1999.90;999.90;;;;;;;12.20;100.00;100941.47;5091359;28;20047;-69
2021/08/09 02:15:18;;;;;;;1999.90;999.90;;;;;;;12.08;100.00;100937.94;5089996;28;20083;-69
2021/08/09 02:17:55;;;;;;;1999.90;999.90;;;;;;;11.99;100.00;100942.28;5089519;28;20389;-69
2021/08/09 02:20:32;;;;;;;1999.90;999.90;;;;;;;11.91;100.00;100950.19;5089834;28;20048;-69
2021/08/09 02:23:04;;;;;;;1999.90;999.90;;;;;;;11.84;100.00;100938.09;5072811;28;20422;-69
2021/08/09 02:25:34;;;;;;;1999.90;999.90;;;;;;;11.80;100.00;100940.19;5090961;28;20059;-69
2021/08/09 02:28:06;;;;;;;1999.90;999.90;;;;;;;11.77;100.00;100955.91;5089885;28;20048;-69
2021/08/09 02:30:38;;;;;;;1999.90;999.90;;;;;;;11.71;100.00;100960.00;5095092;28;20040;-67
2021/08/09 02:33:07;;;;;;;1999.90;999.90;;;;;;;11.67;100.00;100961.25;5093592;28;20098;-67
2021/08/09 02:35:35;;;;;;;1999.90;999.90;;;;;;;11.61;100.00;100962.63;5093797;28;20133;-69
2021/08/09 02:38:03;;;;;;;1999.90;999.90;;;;;;;11.55;100.00;100961.25;5093561;28;20526;-69
2021/08/09 02:40:31;;;;;;;1999.90;999.90;;;;;;;11.50;100.00;100963.47;5093770;28;20116;-71
2021/08/09 02:42:58;;;;;;;1999.90;999.90;;;;;;;11.44;100.00;100966.72;5094070;28;20048;-69
2021/08/09 02:45:25;;;;;;;1999.90;999.90;;;;;;;11.41;100.00;100963.38;5093560;28;20052;-69
2021/08/09 02:47:53;;;;;;;1999.90;999.90;;;;;;;11.33;100.00;100980.28;5093352;28;20043;-69
2021/08/09 02:50:21;;;;;;;1999.90;999.90;;;;;;;11.30;100.00;100962.38;5093387;28;20457;-69
2021/08/09 02:52:48;;;;;;;1999.90;999.90;;;;;;;11.23;100.00;100962.00;5093246;28;20177;-69
2021/08/09 02:55:17;;;;;;;1999.90;999.90;;;;;;;11.19;100.00;100975.97;5094375;28;20048;-69
2021/08/09 02:57:47;;;;;;;1999.90;999.90;;;;;;;11.13;100.00;100980.03;5093005;28;20044;-69
2021/08/09 03:00:15;;;;;;;1999.90;999.90;;;;;;;11.10;100.00;100982.97;5093401;28;20056;-67
2021/08/09 03:02:43;;;;;;;1999.90;999.90;;;;;;;11.11;100.00;100983.88;5093173;28;20131;-67
2021/08/09 03:05:12;;;;;;;1999.90;999.90;;;;;;;11.11;100.00;100995.59;5093410;28;20048;-68
2021/08/09 03:07:43;;;;;;;1999.90;999.90;;;;;;;11.10;100.00;100991.13;5094107;28;20047;-67
2021/08/09 03:10:11;;;;;;;1999.90;999.90;;;;;;;11.08;100.00;100986.81;5093044;28;20135;-68
2021/08/09 03:12:39;;;;;;;1999.90;999.90;;;;;;;11.07;100.00;100991.38;5092953;28;20294;-68
2021/08/09 03:15:07;;;;;;;1999.90;999.90;;;;;;;11.03;100.00;100996.19;5094145;28;20458;-68
2021/08/09 03:17:33;;;;;;;1999.90;999.90;;;;;;;11.01;100.00;101000.00;5092937;28;20048;-70
2021/08/09 03:20:00;;;;;;;1999.90;999.90;;;;;;;10.97;100.00;100998.53;5092815;28;20056;-69
2021/08/09 03:22:26;;;;;;;1999.90;999.90;;;;;;;10.93;100.00;100997.03;5092865;28;20075;-69
2021/08/09 03:24:54;;;;;;;1999.90;999.90;;;;;;;10.92;100.00;100998.91;5092588;28;20056;-69
2021/08/09 03:27:20;;;;;;;1999.90;999.90;;;;;;;10.89;100.00;101004.59;5092617;28;20047;-69
2021/08/09 03:29:47;;;;;;;1999.90;999.90;;;;;;;10.91;100.00;101004.47;5092444;28;20115;-69
2021/08/09 03:32:14;;;;;;;1999.90;999.90;;;;;;;10.88;100.00;100992.84;5093857;28;20039;-69
2021/08/09 03:34:41;;;;;;;1999.90;999.90;;;;;;;10.86;100.00;100999.38;5092619;28;20119;-69
2021/08/09 03:37:08;;;;;;;1999.90;999.90;;;;;;;10.83;100.00;100997.75;5092475;28;20063;-68
2021/08/09 03:39:37;;;;;;;1999.90;999.90;;;;;;;10.83;100.00;100997.75;5091980;28;20065;-68
2021/08/09 03:42:05;;;;;;;1999.90;999.90;;;;;;;10.83;100.00;101008.63;5093343;28;20072;-68
2021/08/09 03:44:32;;;;;;;1999.90;999.90;;;;;;;10.82;100.00;101006.91;5093637;28;20067;-68
2021/08/09 03:46:58;;;;;;;1999.90;999.90;;;;;;;10.82;100.00;101008.75;5093237;28;20070;-68
2021/08/09 03:49:24;;;;;;;1999.90;999.90;;;;;;;10.79;100.00;101004.41;5093540;28;20131;-68
2021/08/09 03:51:51;;;;;;;1999.90;999.90;;;;;;;10.77;100.00;101008.22;5092172;28;20113;-68
2021/08/09 03:54:18;;;;;;;1999.90;999.90;;;;;;;10.78;100.00;101009.97;5092438;28;20051;-68
2021/08/09 03:56:44;;;;;;;1999.90;999.90;;;;;;;10.80;100.00;101006.16;5092014;28;20040;-68
2021/08/09 03:59:12;;;;;;;1999.90;999.90;;;;;;;10.81;100.00;101005.19;5092064;28;20097;-68
2021/08/09 04:01:40;;;;;;;1999.90;999.90;;;;;;;10.82;100.00;101015.06;5092078;28;20071;-69
2021/08/09 04:04:08;;;;;;;1999.90;999.90;;;;;;;10.86;100.00;101013.84;5092026;28;20458;-68
2021/08/09 04:06:35;;;;;;;1999.90;999.90;;;;;;;10.89;100.00;101013.59;5105596;28;20047;-68
2021/08/09 04:09:01;;;;;;;1999.90;999.90;;;;;;;10.92;100.00;101020.63;5111978;28;20057;-68
2021/08/09 04:11:29;;;;;;;1999.90;999.90;;;;;;;10.99;100.00;101010.16;5112557;28;20051;-68
2021/08/09 04:13:57;;;;;;;1999.90;999.90;;;;;;;11.03;100.00;101011.63;5112119;28;20044;-68
2021/08/09 04:16:26;;;;;;;1999.90;999.90;;;;;;;11.07;100.00;101015.00;5112092;28;20054;-70
2021/08/09 04:18:54;;;;;;;1999.90;999.90;;;;;;;11.10;100.00;101018.31;5111973;28;20478;-70
2021/08/09 04:21:20;;;;;;;1999.90;999.90;;;;;;;11.14;100.00;101013.50;5113339;28;20059;-68
2021/08/09 04:23:48;;;;;;;1999.90;999.90;;;;;;;11.19;100.00;101017.56;5113044;28;20044;-68
2021/08/09 04:26:15;;;;;;;1999.90;999.90;;;;;;;11.28;100.00;101017.88;5113225;27;20045;-67
2021/08/09 04:28:42;;;;;;;1999.90;999.90;;;;;;;11.35;100.00;101014.50;5111793;28;20553;-66
2021/08/09 04:31:08;;;;;;;1999.90;999.90;;;;;;;11.42;100.00;101001.28;5105179;28;20048;-67
2021/08/09 04:33:42;;;;;;;1999.90;999.90;;;;;;;11.53;100.00;101006.75;5112815;28;20075;-68
2021/08/09 04:36:09;;;;;;;1999.90;999.90;;;;;;;11.63;100.00;101008.72;5111776;28;20409;-70
2021/08/09 04:38:35;;;;;;;1999.90;999.90;;;;;;;11.77;100.00;101004.84;5110279;28;20407;-70
2021/08/09 04:41:04;;;;;;;1999.90;999.90;;;;;;;11.89;100.00;101012.00;5111528;28;20043;-67
2021/08/09 04:43:30;;;;;;;1999.90;999.90;;;;;;;11.99;100.00;101004.00;5092828;28;20126;-67
2021/08/09 04:45:57;;;;;;;1999.90;999.90;;;;;;;12.08;100.00;100997.78;5102698;28;20044;-67
2021/08/09 04:48:26;;;;;;;1999.90;999.90;;;;;;;12.19;100.00;101000.47;5091130;28;20048;-68
2021/08/09 04:50:54;;;;;;;1999.90;999.90;;;;;;;12.28;100.00;101003.41;5097505;28;20053;-70
2021/08/09 04:53:21;;;;;;;1999.90;999.90;;;;;;;12.40;100.00;101010.56;5110542;28;20066;-70
2021/08/09 04:55:48;;;;;;;1999.90;999.90;;;;;;;12.50;100.00;101005.19;5112358;28;20039;-67
2021/08/09 04:58:14;;;;;;;1999.90;999.90;;;;;;;12.59;100.00;101008.97;5108273;28;20453;-67
2021/08/09 05:00:41;;;;;;;1999.90;999.90;;;;;;;12.67;100.00;101006.47;5093440;28;20127;-67
2021/08/09 05:03:08;;;;;;;1999.90;999.90;;;;;;;12.76;100.00;101008.41;5108286;28;20050;-67
2021/08/09 05:05:34;;;;;;;1999.90;999.90;;;;;;;12.98;100.00;101004.66;5101086;28;20424;-70
2021/08/09 05:08:03;;;;;;;1999.90;999.90;;;;;;;13.03;100.00;100998.84;5110769;28;20498;-70
2021/08/09 05:10:31;;;;;;;1999.90;999.90;;;;;;;13.09;100.00;101001.00;5094263;28;20050;-70
2021/08/09 05:12:58;;;;;;;1999.90;999.90;;;;;;;13.17;100.00;100997.63;5091810;28;20082;-70
2021/08/09 05:15:26;;;;;;;1999.90;999.90;;;;;;;13.27;100.00;101000.38;5095899;28;20040;-70
2021/08/09 05:17:53;;;;;;;1999.90;999.90;;;;;;;13.34;100.00;101001.59;5095915;28;20050;-67
2021/08/09 05:20:19;;;;;;;1999.90;999.90;;;;;;;13.47;100.00;101001.38;5104988;28;20380;-70
2021/08/09 05:22:45;;;;;;;1999.90;999.90;;;;;;;13.57;100.00;101002.28;5090498;28;20047;-70
2021/08/09 05:25:14;;;;;;;1999.90;999.90;;;;;;;13.70;100.00;100993.88;5095428;28;20039;-70
2021/08/09 05:27:42;;;;;;;1999.90;999.90;;;;;;;13.80;100.00;101002.06;5093868;28;20516;-69
2021/08/09 05:30:10;;;;;;;1999.90;999.90;;;;;;;13.98;100.00;100999.53;5070993;28;20563;-69
2021/08/09 05:32:38;;;;;;;1999.90;999.90;;;;;;;14.03;100.00;100998.13;5091845;28;20441;-69
2021/08/09 05:35:06;;;;;;;1999.90;999.90;;;;;;;14.20;100.00;100993.84;5094080;28;20104;-67
2021/08/09 05:37:34;;;;;;;1999.90;999.90;;;;;;;14.35;100.00;101007.06;5096262;28;20075;-67
2021/08/09 05:40:05;;;;;;;1999.90;999.90;;;;;;;14.53;100.00;100999.88;5102589;28;20059;-69
2021/08/09 05:42:33;;;;;;;1999.90;999.90;;;;;;;14.77;100.00;101003.22;5102052;28;20128;-68
2021/08/09 05:45:00;;;;;;;1999.90;999.90;;;;;;;15.06;100.00;101004.03;5109747;28;20449;-69
2021/08/09 05:47:28;;;;;;;1999.90;999.90;;;;;;;15.38;100.00;101010.13;5096033;28;20071;-68
2021/08/09 05:49:56;;;;;;;;;;;;;;;15.62;100.00;100997.78;5090221;28;20665;-70
2021/08/09 05:52:22;;;;;;;;;;;;;;;15.92;100.00;101004.00;5091630;28;19923;-67
2021/08/09 05:54:55;;;;;;;;;;;;;;;16.37;100.00;101005.88;5090261;28;19932;-67
2021/08/09 05:57:22;;;;;;;1999.90;999.90;;;;;;;17.10;100.00;101010.28;5102983;28;19927;-70
2021/08/09 05:59:50;;;;;;;1999.90;999.90;;;;;;;17.62;100.00;101008.53;5089812;28;20101;-67
2021/08/09 06:02:19;;;;;;;1999.90;999.90;;;;;;;18.13;100.00;101003.09;5109121;28;20046;-69
2021/08/09 06:04:45;;;;;;;1999.90;999.90;;;;;;;18.21;100.00;101005.84;5106498;28;20109;-69
2021/08/09 06:07:13;;;;;;;1999.90;999.90;;;;;;;18.66;100.00;101010.03;5096256;28;20067;-66
2021/08/09 06:09:43;;;;;;;;;;;;;;;18.56;100.00;100992.88;5097967;28;20036;-66
2021/08/09 06:12:10;;;;;;;1999.90;999.90;;;;;;;19.35;100.00;100997.81;5096523;28;19920;-66
2021/08/09 06:14:38;;;;;;;1999.90;999.90;;;;;;;19.60;100.00;101001.31;5096356;28;20044;-70
2021/08/09 06:17:06;;;;;;;1764.63;574.15;;;;;;;19.85;100.00;101004.88;5098283;28;20148;-71
2021/08/09 06:19:35;;;;;;;1757.22;550.00;;;;;;;20.12;100.00;101005.44;5116636;28;20055;-70
2021/08/09 06:22:02;;;;;;;1999.90;999.90;;;;;;;20.23;100.00;101002.28;5115094;28;20479;-71
2021/08/09 06:24:30;;;;;;;1999.90;999.90;;;;;;;20.83;100.00;101002.56;5115683;28;20422;-66
2021/08/09 06:26:56;;;;;;;1999.90;999.90;;;;;;;20.07;100.00;101006.00;5115889;28;20485;-66
2021/08/09 06:29:23;;;;;;;1999.90;999.90;;;;;;;20.26;100.00;101017.59;5105407;28;20051;-66
2021/08/09 06:31:49;;;;;;;1999.90;999.90;;;;;;;20.38;100.00;101015.28;5116477;27;20104;-65
2021/08/09 06:34:21;;;;;;;1999.90;999.90;;;;;;;20.08;100.00;101009.59;5104137;27;20071;-70
2021/08/09 06:36:47;;;;;;;1999.90;999.90;;;;;;;19.93;100.00;101012.25;5110543;28;20044;-71
2021/08/09 06:39:18;;;;;;;1999.90;999.90;;;;;;;19.83;100.00;101003.34;5115554;28;20086;-71
2021/08/09 06:41:45;;;;;;;1999.90;999.90;;;;;;;19.86;100.00;101016.78;5114026;28;20051;-71
2021/08/09 06:44:28;;;;;;;1999.90;999.90;;;;;;;19.84;100.00;101016.97;5115896;27;20058;-66
2021/08/09 06:46:55;;;;;;;1999.90;999.90;;;;;;;19.96;100.00;101017.41;5117551;27;20061;-65
2021/08/09 06:49:23;;;;;;;1999.90;999.90;;;;;;;20.17;100.00;101019.53;5116554;27;20051;-64
2021/08/09 06:51:49;;;;;;;1999.90;999.90;;;;;;;20.17;100.00;101019.53;5116327;27;20074;-71
2021/08/09 06:54:19;;;;;;;1999.90;999.90;;;;;;;20.16;100.00;101015.09;5114319;27;20084;-70
2021/08/09 06:56:46;;;;;;;1999.90;999.90;;;;;;;20.33;100.00;101017.72;5116166;28;20075;-70
2021/08/09 06:59:13;;;;;;;1999.90;999.90;;;;;;;20.13;100.00;101020.09;5117751;28;20036;-70
2021/08/09 07:01:44;;;;;;;1999.90;999.90;;;;;;;19.78;100.00;101028.66;5116177;28;20048;-71
2021/08/09 07:04:11;;;;;;;1999.90;999.90;;;;;;;19.76;100.00;101027.94;5116476;28;20464;-66
2021/08/09 07:06:39;;;;;;;1999.90;999.90;;;;;;;19.54;100.00;101024.94;5116180;27;20131;-65
2021/08/09 07:09:05;;;;;;;1999.90;999.90;;;;;;;19.45;100.00;101023.22;5116681;28;20518;-71
2021/08/09 07:11:32;;;;;;;1999.90;999.90;;;;;;;19.64;100.00;101018.38;5116604;28;20050;-71
2021/08/09 07:14:00;;;;;;;1999.90;999.90;;;;;;;19.33;100.00;101020.00;5116045;28;20071;-71
2021/08/09 07:16:30;;;;;;;1999.90;999.90;;;;;;;19.51;100.00;101014.28;5111968;28;20414;-71
2021/08/09 07:18:59;;;;;;;1999.90;999.90;;;;;;;19.64;100.00;101018.38;5112414;28;20056;-71
2021/08/09 07:21:25;;;;;;;1999.90;999.90;;;;;;;19.84;100.00;101019.72;5112961;28;20044;-66
2021/08/09 07:23:55;;;;;;;1999.90;999.90;;;;;;;19.93;100.00;101031.53;5112927;28;20039;-71
2021/08/09 07:26:21;;;;;;;1999.90;999.90;;;;;;;19.77;100.00;101024.16;5112780;28;20104;-70
2021/08/09 07:28:49;;;;;;;1999.90;999.90;;;;;;;19.81;100.00;101025.56;5112479;28;20050;-65
2021/08/09 07:31:15;;;;;;;1999.90;999.90;;;;;;;19.85;100.00;101026.91;5112706;28;20043;-70
2021/08/09 07:33:42;;;;;;;1999.90;999.90;;;;;;;19.74;100.00;101030.88;5095171;28;20048;-70
2021/08/09 07:36:08;;;;;;;1999.90;999.90;;;;;;;19.74;100.00;101032.78;5077064;28;20056;-71
2021/08/09 07:38:35;;;;;;;1999.90;999.90;;;;;;;19.64;100.00;101024.75;5099727;28;20043;-71
2021/08/09 07:41:04;;;;;;;1999.90;999.90;;;;;;;19.53;100.00;101025.97;5110772;28;20055;-72
2021/08/09 07:43:31;;;;;;;1999.90;999.90;;;;;;;19.49;100.00;101021.84;5113449;28;20127;-71
2021/08/09 07:45:58;;;;;;;1999.90;999.90;;;;;;;19.50;100.00;101028.22;5103717;28;20039;-72
2021/08/09 07:48:24;;;;;;;1999.90;999.90;;;;;;;19.82;100.00;101029.19;5107525;28;20450;-71
2021/08/09 07:50:51;;;;;;;1999.90;999.90;;;;;;;20.09;100.00;101019.56;5112066;28;20044;-71
2021/08/09 07:53:18;;;;;;;1999.90;999.90;;;;;;;20.20;100.00;101018.31;5097257;28;20046;-72
2021/08/09 07:55:45;;;;;;;1999.90;999.90;;;;;;;20.36;100.00;101022.88;5098749;28;20105;-67
2021/08/09 07:58:13;;;;;;;1999.90;999.90;;;;;;;20.17;100.00;101025.03;5092689;28;20048;-67
2021/08/09 08:00:39;;;;;;;1999.90;999.90;;;;;;;19.98;100.00;101022.75;5101894;28;20070;-66
2021/08/09 08:03:07;;;;;;;1999.90;999.90;;;;;;;20.02;100.00;101021.34;5107264;28;20491;-71
2021/08/09 08:05:34;;;;;;;1999.90;999.90;;;;;;;19.82;100.00;101027.28;5092432;28;20115;-66
2021/08/09 08:08:01;;;;;;;1999.90;999.90;;;;;;;19.72;100.00;101021.09;5092451;27;20495;-67
2021/08/09 08:10:28;;;;;;;1999.90;999.90;;;;;;;19.88;100.00;101029.34;5091310;28;20044;-67
2021/08/09 08:12:54;;;;;;;1999.90;999.90;;;;;;;19.80;100.00;101029.34;5092419;28;20510;-71
2021/08/09 08:15:22;;;;;;;1999.90;999.90;;;;;;;19.70;100.00;101032.28;5091475;28;20067;-71
2021/08/09 08:17:49;;;;;;;1999.90;999.90;;;;;;;19.62;100.00;101028.72;5110045;28;20563;-72
2021/08/09 08:20:17;;;;;;;1999.90;999.90;;;;;;;19.51;100.00;101025.28;5111808;28;20047;-70
2021/08/09 08:22:43;;;;;;;1999.90;999.90;;;;;;;19.47;100.00;101034.06;5109336;28;20118;-71
2021/08/09 08:25:13;;;;;;;1999.90;999.90;;;;;;;19.34;100.00;101032.72;5111980;28;20044;-71
2021/08/09 08:27:42;;;;;;;1999.90;999.90;;;;;;;19.18;100.00;101039.09;5110612;28;20471;-71
2021/08/09 08:30:09;;;;;;;1999.90;999.90;;;;;;;18.96;100.00;101042.56;5112063;28;20044;-71
2021/08/09 08:32:37;;;;;;;1999.90;999.90;;;;;;;18.75;100.00;101041.16;5096036;28;20052;-63
2021/08/09 08:35:05;;;;;;;1999.90;999.90;;;;;;;18.61;100.00;101042.69;5090804;28;20078;-64
2021/08/09 08:37:32;;;;;;;1999.90;999.90;;;;;;;18.64;100.00;101049.72;5097195;28;20126;-71
2021/08/09 08:39:58;;;;;;;1999.90;999.90;;;;;;;18.71;100.00;101057.13;5090454;28;20050;-71
2021/08/09 08:42:25;;;;;;;1999.90;999.90;;;;;;;18.88;100.00;101059.88;5092073;28;20071;-70
2021/08/09 08:44:52;;;;;;;1999.90;999.90;;;;;;;18.90;100.00;101061.47;5091489;28;20035;-64
2021/08/09 08:47:19;;;;;;;1999.90;999.90;;;;;;;18.78;100.00;101060.06;5090579;28;20044;-72
2021/08/09 08:49:49;;;;;;;1999.90;999.90;;;;;;;18.72;100.00;101053.34;5090667;28;20059;-71
2021/08/09 08:52:16;;;;;;;1999.90;999.90;;;;;;;18.71;100.00;101053.53;5091683;28;20048;-72
2021/08/09 08:54:44;;;;;;;1999.90;999.90;;;;;;;18.67;100.00;101065.91;5099565;28;20044;-71
2021/08/09 08:57:18;;;;;;;1999.90;999.90;;;;;;;18.77;100.00;101071.22;5104989;28;20105;-72
2021/08/09 08:59:45;;;;;;;1999.90;999.90;;;;;;;18.89;100.00;101059.78;5100891;28;20483;-65
2021/08/09 09:02:29;;;;;;;1999.90;999.90;;;;;;;18.93;100.00;101071.25;5099010;28;20059;-64
2021/08/09 09:05:06;;;;;;;1999.90;999.90;;;;;;;18.90;100.00;101072.47;5111386;28;20039;-70
2021/08/09 09:07:32;;;;;;;1999.90;999.90;;;;;;;18.97;100.00;101077.28;5100887;28;20044;-64
2021/08/09 09:10:13;;;;;;;1999.90;999.90;;;;;;;19.03;100.00;101076.63;5091591;28;20074;-71
2021/08/09 09:12:40;;;;;;;1999.90;999.90;;;;;;;19.29;100.00;101083.81;5100313;28;20067;-70
2021/08/09 09:15:07;;;;;;;1999.90;999.90;;;;;;;19.42;100.00;101080.53;5091468;28;20112;-70
2021/08/09 09:17:35;;;;;;;1999.90;999.90;;;;;;;19.47;100.00;101080.84;5101612;28;20076;-70
2021/08/09 09:20:22;;;;;;;1999.90;999.90;;;;;;;19.37;100.00;101072.81;5110230;28;20436;-64
2021/08/09 09:22:48;;;;;;;1999.90;999.90;;;;;;;19.26;100.00;101082.28;5098395;28;20047;-65
2021/08/09 09:25:15;;;;;;;1999.90;999.90;;;;;;;19.48;100.00;101091.72;5092895;28;20469;-72
2021/08/09 09:27:41;;;;;;;1999.90;999.90;;;;;;;19.65;100.00;101080.66;5111630;28;20070;-65
2021/08/09 09:30:27;;;;;;;1999.90;999.90;;;;;;;19.70;100.00;101081.00;5106262;28;20068;-65
2021/08/09 09:33:01;;;;;;;1999.90;999.90;;;;;;;19.71;100.00;101079.97;5105214;28;20036;-64
2021/08/09 09:35:28;;;;;;;1999.90;999.90;;;;;;;19.65;100.00;101083.41;5090905;28;20043;-71
2021/08/09 09:37:56;;;;;;;1999.90;999.90;;;;;;;19.58;100.00;101089.63;5095243;28;20047;-72
2021/08/09 09:40:23;;;;;;;1999.90;999.90;;;;;;;19.35;100.00;101088.66;5102452;28;20164;-72
2021/08/09 09:42:52;;;;;;;1999.90;999.90;;;;;;;19.44;100.00;101090.34;5090517;28;20553;-71
2021/08/09 09:45:23;;;;;;;1999.90;999.90;;;;;;;19.54;100.00;101098.41;5094755;28;20044;-72
2021/08/09 09:48:01;;;;;;;1999.90;999.90;;;;;;;19.47;100.00;101094.63;5107189;28;20126;-72
2021/08/09 09:50:30;;;;;;;1999.90;999.90;;;;;;;19.56;100.00;101094.44;5110628;28;20067;-66
2021/08/09 09:52:56;;;;;;;1999.90;999.90;;;;;;;19.50;100.00;101091.53;5111074;28;20078;-65
2021/08/09 09:55:23;;;;;;;1999.90;999.90;;;;;;;19.43;100.00;101096.00;5107264;28;20032;-64
2021/08/09 09:57:49;;;;;;;1999.90;999.90;;;;;;;19.77;100.00;101098.53;5096153;28;20040;-64
2021/08/09 10:00:18;;;;;;;1999.90;999.90;;;;;;;20.46;100.00;101083.31;5108873;28;20476;-64
2021/08/09 10:02:47;;;;;;;1999.90;999.90;;;;;;;21.02;100.00;101080.38;5091700;28;20068;-64
2021/08/09 10:05:15;;;;;;;1999.90;999.90;;;;;;;21.70;100.00;101074.88;5115782;28;20479;-64
2021/08/09 10:07:47;;;;;;;1999.90;999.90;;;;;;;21.39;100.00;101070.34;5101334;28;20048;-64
2021/08/09 10:10:14;;;;;;;1999.90;999.90;;;;;;;22.08;100.00;101072.88;5107062;28;20047;-65
2021/08/09 10:12:42;;;;;;;1999.90;999.90;;;;;;;22.48;100.00;101067.00;5107842;28;20056;-65
2021/08/09 10:15:09;;;;;;;1999.90;999.90;;;;;;;22.77;100.00;101065.22;5090626;28;20051;-65
2021/08/09 10:17:37;;;;;;;1999.90;999.90;;;;;;;23.57;100.00;101073.34;5090466;28;20127;-65
2021/08/09 10:20:07;;;;;;;1999.90;999.90;;;;;;;23.27;100.00;101072.72;5090431;28;20131;-65
2021/08/09 10:22:34;;;;;;;1999.90;999.90;;;;;;;23.12;100.00;101062.53;5090817;28;20067;-72
2021/08/09 10:25:02;;;;;;;1999.90;999.90;;;;;;;22.79;100.00;101068.63;5097482;28;20499;-65
2021/08/09 10:27:53;;;;;;;1999.90;999.90;;;;;;;22.45;100.00;101067.41;5089034;28;20079;-72
2021/08/09 10:30:21;;;;;;;1999.90;999.90;;;;;;;22.65;100.00;101064.00;5094068;28;20492;-72
2021/08/09 10:32:52;;;;;;;1999.90;999.90;;;;;;;22.93;100.00;101064.09;5103865;28;20097;-65
2021/08/09 10:36:04;;;;;;;1999.90;999.90;;;;;;;23.27;100.00;101064.41;5102180;28;20040;-67
2021/08/09 10:38:38;;;;;;;1999.90;999.90;;;;;;;22.74;100.00;101065.56;5090245;28;20063;-70
2021/08/09 10:41:35;;;;;;;1999.90;999.90;;;;;;;21.96;100.00;101059.75;5089903;28;20101;-72
2021/08/09 10:44:21;;;;;;;1999.90;999.90;;;;;;;22.40;100.00;101064.38;5088624;28;20076;-70
2021/08/09 10:46:48;;;;;;;1999.90;999.90;;;;;;;22.79;100.00;101071.38;5090299;28;20056;-65
2021/08/09 10:49:57;;;;;;;1999.90;999.90;;;;;;;22.54;100.00;101071.78;5088798;28;20172;-67